Time;durP1;ratioP1;P1;durP2;ratioP2;P2;SDS_P1;SDS_P2;PMS_P1;PMS_P2;Temp;Humidity;BMP_temperature;BMP_pressure;BME280_temperature;BME280_humidity;BME280_pressure;Samples;Min_cycle;Max_cycle;Signal;HPM_P1;HPM_P2
2023/09/30 00:01:59;;;;;;;3.40;2.50;;;20.30;76.70;;;;;;956946;147;27438;-73
2023/09/30 00:04:27;;;;;;;2.42;2.22;;;20.30;76.80;;;;;;954553;146;27332;-75
2023/09/30 00:06:52;;;;;;;3.83;3.33;;;20.30;76.80;;;;;;954622;148;27351;-76
2023/09/30 00:09:18;;;;;;;2.50;2.30;;;20.30;76.90;;;;;;945738;147;27513;-74
2023/09/30 00:11:45;;;;;;;4.78;2.80;;;20.30;77.10;;;;;;945599;147;27509;-73
2023/09/30 00:14:12;;;;;;;4.25;2.85;;;20.20;77.20;;;;;;941979;148;27343;-73
2023/09/30 00:16:38;;;;;;;5.45;2.92;;;20.20;77.50;;;;;;946825;148;27435;-76
2023/09/30 00:19:05;;;;;;;5.08;2.85;;;20.20;77.50;;;;;;939833;148;27453;-75
2023/09/30 00:21:31;;;;;;;2.60;2.40;;;20.20;77.50;;;;;;941181;148;27414;-76
2023/09/30 00:23:58;;;;;;;6.40;2.90;;;20.20;77.50;;;;;;939242;148;27909;-75
2023/09/30 00:26:25;;;;;;;3.95;3.08;;;20.10;77.70;;;;;;957076;145;27296;-75
2023/09/30 00:28:51;;;;;;;3.92;3.20;;;20.10;77.80;;;;;;937399;149;27387;-75
2023/09/30 00:31:18;;;;;;;4.22;2.98;;;20.10;78.10;;;;;;949196;147;27307;-76
2023/09/30 00:33:44;;;;;;;4.70;3.10;;;20.10;78.50;;;;;;939373;148;27396;-76
2023/09/30 00:36:12;;;;;;;3.12;2.80;;;20.00;78.60;;;;;;938267;149;27345;-75
2023/09/30 00:38:37;;;;;;;5.12;2.92;;;20.00;78.80;;;;;;942199;148;27359;-75
2023/09/30 00:41:04;;;;;;;3.58;2.80;;;20.00;79.10;;;;;;940982;148;27313;-75
2023/09/30 00:43:32;;;;;;;3.72;3.30;;;20.00;79.10;;;;;;941469;148;27432;-75
2023/09/30 00:45:57;;;;;;;2.72;2.50;;;20.00;79.10;;;;;;942243;148;27401;-75
2023/09/30 00:48:24;;;;;;;3.47;2.80;;;20.00;79.20;;;;;;956527;145;27275;-75
2023/09/30 00:50:50;;;;;;;4.12;3.15;;;19.90;79.30;;;;;;960518;145;28367;-76
2023/09/30 00:53:17;;;;;;;4.42;2.70;;;19.90;79.50;;;;;;940551;148;27360;-76
2023/09/30 00:55:44;;;;;;;4.40;2.72;;;19.90;79.60;;;;;;959647;145;27425;-76
2023/09/30 00:58:10;;;;;;;3.52;2.72;;;19.90;79.40;;;;;;941548;148;27262;-75
2023/09/30 01:00:37;;;;;;;7.85;3.02;;;19.80;79.40;;;;;;941181;148;27474;-76
2023/09/30 01:03:03;;;;;;;3.17;2.87;;;19.80;79.50;;;;;;963475;145;27454;-76
2023/09/30 01:05:30;;;;;;;4.67;3.02;;;19.80;79.40;;;;;;943558;148;27377;-75
2023/09/30 01:07:57;;;;;;;3.62;2.92;;;19.80;79.60;;;;;;948593;147;27442;-75
2023/09/30 01:10:23;;;;;;;5.03;3.08;;;19.80;79.60;;;;;;943773;148;27768;-75
2023/09/30 01:12:50;;;;;;;4.92;2.80;;;19.80;79.70;;;;;;963207;145;27385;-75
2023/09/30 01:15:16;;;;;;;4.58;2.80;;;19.70;79.70;;;;;;955357;147;27423;-75
2023/09/30 01:17:43;;;;;;;5.33;2.92;;;19.70;79.80;;;;;;962200;145;27329;-75
2023/09/30 01:20:11;;;;;;;3.25;2.70;;;19.70;79.70;;;;;;963526;145;27331;-76
2023/09/30 01:22:36;;;;;;;2.98;2.60;;;19.70;79.60;;;;;;949320;147;27364;-76
2023/09/30 01:25:04;;;;;;;4.47;2.67;;;19.60;79.40;;;;;;962268;145;27425;-75
2023/09/30 01:27:30;;;;;;;3.55;2.50;;;19.60;79.50;;;;;;944563;148;27870;-76
2023/09/30 01:29:57;;;;;;;4.40;3.40;;;19.60;79.60;;;;;;948929;147;27363;-75
2023/09/30 01:32:23;;;;;;;3.80;2.62;;;19.50;79.60;;;;;;961655;145;27268;-76
2023/09/30 01:34:49;;;;;;;4.25;2.67;;;19.40;79.60;;;;;;948752;147;27479;-76
2023/09/30 01:37:16;;;;;;;3.95;3.02;;;19.40;79.20;;;;;;963512;145;27349;-75
2023/09/30 01:39:45;;;;;;;5.65;2.83;;;19.30;79.90;;;;;;957852;146;27217;-75
2023/09/30 01:42:09;;;;;;;4.08;2.72;;;19.20;80.10;;;;;;945812;147;27326;-75
2023/09/30 01:44:36;;;;;;;3.92;2.55;;;19.20;80.50;;;;;;945940;147;28411;-75
2023/09/30 01:47:02;;;;;;;5.45;2.85;;;19.10;80.90;;;;;;945971;147;27419;-75
2023/09/30 01:49:29;;;;;;;5.80;3.37;;;19.00;81.20;;;;;;947095;147;27367;-75
2023/09/30 01:51:55;;;;;;;4.92;2.92;;;19.00;81.60;;;;;;957778;148;27378;-75
2023/09/30 01:54:22;;;;;;;5.12;3.00;;;18.90;81.90;;;;;;957471;145;27391;-76
2023/09/30 01:56:49;;;;;;;3.90;2.60;;;18.90;82.40;;;;;;951119;147;28354;-76
2023/09/30 01:59:16;;;;;;;4.83;3.02;;;18.80;82.80;;;;;;943734;147;27452;-75
2023/09/30 02:01:42;;;;;;;5.10;3.00;;;18.80;83.10;;;;;;964864;145;27390;-75
2023/09/30 02:04:08;;;;;;;3.25;2.58;;;18.70;83.50;;;;;;949192;147;27356;-75
2023/09/30 02:06:35;;;;;;;3.80;2.42;;;18.70;83.60;;;;;;962662;145;27851;-75
2023/09/30 02:09:03;;;;;;;5.30;3.08;;;18.70;84.00;;;;;;962912;145;27347;-75
2023/09/30 02:11:28;;;;;;;6.45;2.95;;;18.60;84.30;;;;;;952227;147;27435;-75
2023/09/30 02:13:55;;;;;;;6.95;3.45;;;18.60;84.50;;;;;;962946;145;27322;-75
2023/09/30 02:16:22;;;;;;;5.22;3.22;;;18.60;84.70;;;;;;944948;148;27447;-76
2023/09/30 02:18:50;;;;;;;3.58;2.77;;;18.60;84.80;;;;;;943143;148;27475;-75
2023/09/30 02:21:14;;;;;;;3.52;2.72;;;18.50;84.60;;;;;;960818;145;27331;-75
2023/09/30 02:23:41;;;;;;;4.87;3.00;;;18.40;84.90;;;;;;948746;148;27378;-75
2023/09/30 02:26:08;;;;;;;4.62;3.05;;;18.40;85.20;;;;;;962673;145;27313;-75
2023/09/30 02:28:34;;;;;;;3.58;2.75;;;18.30;85.50;;;;;;942403;148;27379;-75
2023/09/30 02:31:01;;;;;;;3.92;2.92;;;18.30;86.20;;;;;;962696;145;27420;-75
2023/09/30 02:33:27;;;;;;;4.15;3.00;;;18.20;86.90;;;;;;951206;147;27455;-75
2023/09/30 02:35:54;;;;;;;5.87;3.27;;;18.10;87.60;;;;;;961444;145;27341;-76
2023/09/30 02:38:21;;;;;;;5.15;2.95;;;18.20;88.40;;;;;;960484;145;27427;-75
2023/09/30 02:40:48;;;;;;;4.20;2.80;;;18.10;88.90;;;;;;960572;145;27739;-75
2023/09/30 02:43:14;;;;;;;4.67;3.12;;;18.10;89.10;;;;;;944857;148;27750;-75
2023/09/30 02:45:40;;;;;;;5.00;3.08;;;18.10;89.20;;;;;;950779;147;28049;-76
2023/09/30 02:48:08;;;;;;;5.58;3.10;;;18.00;89.20;;;;;;962765;145;27292;-75
2023/09/30 02:50:33;;;;;;;4.17;2.77;;;18.00;89.40;;;;;;962257;145;27637;-75
2023/09/30 02:53:00;;;;;;;3.83;2.55;;;18.00;89.50;;;;;;962816;145;27772;-75
2023/09/30 02:55:27;;;;;;;4.35;3.17;;;17.90;89.50;;;;;;963164;145;27320;-76
2023/09/30 02:57:53;;;;;;;8.40;3.40;;;17.90;89.80;;;;;;944645;148;27401;-75
2023/09/30 03:00:32;;;;;;;5.50;3.17;;;17.80;90.00;;;;;;964316;145;27395;-75
2023/09/30 03:02:55;;;;;;;3.98;3.10;;;17.70;90.20;;;;;;942599;148;27759;-75
2023/09/30 03:05:22;;;;;;;3.98;2.77;;;17.70;90.50;;;;;;947217;147;27451;-75
2023/09/30 03:07:50;;;;;;;5.12;3.05;;;17.60;90.70;;;;;;959814;145;27452;-75
2023/09/30 03:10:20;;;;;;;5.33;3.02;;;17.50;91.40;;;;;;950202;147;27967;-75
2023/09/30 03:12:41;;;;;;;4.25;3.08;;;17.50;91.30;;;;;;941067;148;27370;-75
2023/09/30 03:15:09;;;;;;;4.78;3.27;;;17.50;91.50;;;;;;964124;145;27245;-75
2023/09/30 03:17:36;;;;;;;3.90;2.98;;;17.40;91.80;;;;;;947084;148;27332;-75
2023/09/30 03:20:01;;;;;;;7.35;3.00;;;17.40;92.10;;;;;;962145;145;27362;-75
2023/09/30 03:22:28;;;;;;;4.47;3.00;;;17.40;92.30;;;;;;950217;147;27342;-75
2023/09/30 03:24:57;;;;;;;3.52;2.65;;;17.30;92.50;;;;;;950677;147;27300;-75
2023/09/30 03:27:24;;;;;;;5.95;3.22;;;17.30;92.80;;;;;;944919;148;27355;-75
2023/09/30 03:29:50;;;;;;;4.10;2.62;;;17.30;93.00;;;;;;960335;145;27346;-75
2023/09/30 03:32:17;;;;;;;4.60;3.12;;;17.20;93.10;;;;;;949825;147;27343;-76
2023/09/30 03:34:46;;;;;;;4.80;3.37;;;17.20;93.30;;;;;;943941;148;27489;-75
2023/09/30 03:37:10;;;;;;;4.92;3.08;;;17.20;93.50;;;;;;945609;147;27380;-75
2023/09/30 03:39:37;;;;;;;5.65;3.27;;;17.10;93.60;;;;;;962107;145;27345;-75
2023/09/30 03:42:03;;;;;;;3.40;3.02;;;17.10;93.70;;;;;;962454;145;27294;-75
2023/09/30 03:44:30;;;;;;;4.33;3.10;;;17.10;93.80;;;;;;963415;145;27393;-76
2023/09/30 03:46:59;;;;;;;3.77;2.77;;;17.00;94.00;;;;;;945361;148;27372;-74
2023/09/30 03:49:23;;;;;;;5.22;3.40;;;17.00;94.00;;;;;;963720;145;28298;-75
2023/09/30 03:51:50;;;;;;;5.55;3.60;;;16.90;93.90;;;;;;961981;145;27387;-75
2023/09/30 03:54:17;;;;;;;7.67;3.47;;;16.90;94.40;;;;;;950085;147;27404;-75
2023/09/30 03:56:43;;;;;;;4.50;3.17;;;16.90;95.10;;;;;;960539;145;27327;-75
2023/09/30 03:59:10;;;;;;;4.53;3.15;;;16.80;95.30;;;;;;964098;145;27318;-75
2023/09/30 04:01:39;;;;;;;4.65;3.08;;;16.80;95.80;;;;;;963627;145;27481;-75
2023/09/30 04:04:04;;;;;;;5.10;3.22;;;16.80;96.10;;;;;;953518;145;27767;-75
2023/09/30 04:06:29;;;;;;;5.30;3.40;;;16.80;96.40;;;;;;941452;146;27424;-75
2023/09/30 04:08:58;;;;;;;4.12;3.50;;;16.80;96.60;;;;;;926972;149;27844;-75
2023/09/30 04:11:24;;;;;;;4.83;3.33;;;16.90;96.90;;;;;;942520;146;27302;-75
2023/09/30 04:13:50;;;;;;;3.47;2.72;;;16.90;97.00;;;;;;924676;149;27324;-75
2023/09/30 04:16:18;;;;;;;4.05;3.37;;;16.90;97.20;;;;;;927125;150;27367;-76
2023/09/30 04:18:42;;;;;;;5.30;3.62;;;17.00;97.30;;;;;;942986;146;27694;-75
2023/09/30 04:21:09;;;;;;;4.62;3.35;;;17.00;97.40;;;;;;930636;149;27347;-76
2023/09/30 04:23:38;;;;;;;4.83;3.20;;;17.00;97.40;;;;;;930842;149;27368;-75
2023/09/30 04:26:05;;;;;;;5.42;3.20;;;17.10;97.40;;;;;;941223;146;27418;-75
2023/09/30 04:28:31;;;;;;;6.08;3.25;;;17.10;97.40;;;;;;942610;146;27697;-76
2023/09/30 04:30:58;;;;;;;3.72;3.33;;;17.10;97.40;;;;;;947669;146;27425;-75
2023/09/30 04:33:25;;;;;;;4.15;3.00;;;17.10;97.30;;;;;;940856;148;27353;-75
2023/09/30 04:35:51;;;;;;;6.10;3.33;;;17.20;97.20;;;;;;940228;148;27382;-75
2023/09/30 04:38:17;;;;;;;5.37;3.62;;;17.20;97.20;;;;;;925116;150;27339;-75
2023/09/30 04:40:44;;;;;;;5.33;3.25;;;17.20;97.10;;;;;;944562;146;27307;-75
2023/09/30 04:43:11;;;;;;;6.37;3.72;;;17.20;97.10;;;;;;925310;150;27452;-75
2023/09/30 04:45:37;;;;;;;3.80;3.40;;;17.20;96.90;;;;;;948199;147;27312;-75
2023/09/30 04:48:04;;;;;;;4.45;3.12;;;17.20;97.00;;;;;;942342;148;27476;-75
2023/09/30 04:50:30;;;;;;;5.70;3.62;;;17.20;97.20;;;;;;943128;148;27370;-75
2023/09/30 04:53:00;;;;;;;4.37;3.47;;;17.10;97.20;;;;;;942947;147;27301;-75
2023/09/30 04:55:23;;;;;;;4.92;2.95;;;17.10;97.40;;;;;;942481;148;27337;-75
2023/09/30 04:57:50;;;;;;;5.37;3.50;;;17.10;97.60;;;;;;945135;148;27400;-76
2023/09/30 05:00:24;;;;;;;3.75;3.45;;;17.10;97.90;;;;;;940566;148;27345;-76
2023/09/30 05:02:46;;;;;;;5.28;3.12;;;17.10;98.00;;;;;;941167;148;27457;-76
2023/09/30 05:05:13;;;;;;;4.37;3.55;;;17.10;98.10;;;;;;943537;148;27339;-76
2023/09/30 05:07:39;;;;;;;6.47;3.70;;;17.10;98.20;;;;;;944587;148;27382;-76
2023/09/30 05:10:10;;;;;;;5.12;3.87;;;17.10;98.30;;;;;;942408;147;27498;-76
2023/09/30 05:12:33;;;;;;;5.42;4.03;;;17.20;98.40;;;;;;943097;148;27380;-76
2023/09/30 05:14:59;;;;;;;6.70;3.77;;;17.20;98.50;;;;;;939691;148;27275;-76
2023/09/30 05:17:26;;;;;;;8.15;4.22;;;17.20;98.50;;;;;;941789;148;27487;-76
2023/09/30 05:19:53;;;;;;;6.00;3.72;;;17.20;98.50;;;;;;942969;148;27444;-76
2023/09/30 05:22:23;;;;;;;5.05;3.72;;;17.20;98.40;;;;;;941914;148;27308;-76
2023/09/30 05:24:45;;;;;;;5.00;3.62;;;17.30;98.40;;;;;;943205;148;27348;-76
2023/09/30 05:27:12;;;;;;;6.12;4.05;;;17.30;98.30;;;;;;941570;148;27336;-76
2023/09/30 05:29:39;;;;;;;4.95;3.77;;;17.30;98.10;;;;;;944649;147;27404;-76
2023/09/30 05:32:06;;;;;;;6.62;3.37;;;17.30;97.80;;;;;;942646;148;27359;-76
2023/09/30 05:34:32;;;;;;;5.30;4.08;;;17.30;97.50;;;;;;942048;148;27488;-76
2023/09/30 05:36:58;;;;;;;6.95;3.80;;;17.30;97.50;;;;;;944348;148;27356;-76
2023/09/30 05:39:25;;;;;;;6.33;4.03;;;17.20;97.00;;;;;;943139;148;27262;-76
2023/09/30 05:41:51;;;;;;;5.55;4.00;;;17.20;96.90;;;;;;942014;148;27481;-76
2023/09/30 05:44:18;;;;;;;5.20;3.98;;;17.10;96.90;;;;;;942238;148;27352;-76
2023/09/30 05:46:45;;;;;;;4.95;3.62;;;17.00;96.90;;;;;;942663;148;27373;-76
2023/09/30 05:49:13;;;;;;;5.28;4.12;;;17.00;97.20;;;;;;946036;148;27362;-76
2023/09/30 05:51:38;;;;;;;6.45;4.08;;;16.90;97.40;;;;;;944991;148;28783;-76
2023/09/30 05:54:05;;;;;;;6.28;3.60;;;16.90;97.80;;;;;;943956;148;27466;-76
2023/09/30 05:56:31;;;;;;;7.22;3.90;;;16.80;98.00;;;;;;942280;148;27528;-76
2023/09/30 05:58:58;;;;;;;5.47;3.95;;;16.80;98.20;;;;;;945431;148;27313;-76
2023/09/30 06:01:24;;;;;;;5.87;4.08;;;16.70;98.40;;;;;;944082;148;27431;-76
2023/09/30 06:03:51;;;;;;;4.37;3.52;;;16.70;98.70;;;;;;942778;148;27362;-76
2023/09/30 06:06:17;;;;;;;4.62;4.00;;;16.70;99.10;;;;;;943581;147;27419;-76
2023/09/30 06:08:46;;;;;;;4.72;4.03;;;16.70;99.50;;;;;;942207;148;27555;-76
2023/09/30 06:11:28;;;;;;;4.87;3.87;;;16.80;99.90;;;;;;944546;148;27436;-76
2023/09/30 06:13:52;;;;;;;6.85;4.12;;;16.90;99.90;;;;;;942686;148;27440;-76
2023/09/30 06:16:18;;;;;;;5.70;4.37;;;17.00;99.90;;;;;;944893;148;27373;-74
2023/09/30 06:18:48;;;;;;;4.30;3.87;;;17.10;99.90;;;;;;944670;148;27357;-76
2023/09/30 06:21:14;;;;;;;5.85;4.10;;;17.30;99.90;;;;;;943182;148;27420;-75
2023/09/30 06:23:40;;;;;;;5.55;3.90;;;17.40;99.90;;;;;;942544;148;27362;-75
2023/09/30 06:26:07;;;;;;;5.83;3.70;;;17.70;99.90;;;;;;943328;148;27519;-75
2023/09/30 06:28:40;;;;;;;6.78;3.83;;;18.00;99.90;;;;;;944405;148;27273;-75
2023/09/30 06:31:00;;;;;;;5.92;3.55;;;18.40;99.90;;;;;;942830;149;27358;-75
2023/09/30 06:33:29;;;;;;;4.17;3.60;;;18.80;99.90;;;;;;944401;147;27341;-75
2023/09/30 06:35:53;;;;;;;7.00;3.42;;;19.20;99.90;;;;;;927870;149;28268;-75
2023/09/30 06:38:20;;;;;;;7.47;4.28;;;19.60;99.50;;;;;;929788;149;27451;-75
2023/09/30 06:40:47;;;;;;;5.53;4.08;;;19.90;98.60;;;;;;947292;146;27892;-75
2023/09/30 06:43:16;;;;;;;4.17;3.25;;;20.30;97.90;;;;;;925624;149;27397;-75
2023/09/30 06:45:46;;;;;;;4.47;3.62;;;20.70;96.20;;;;;;928029;149;27354;-75
2023/09/30 06:48:12;;;;;;;6.55;3.85;;;21.10;94.90;;;;;;949364;145;27398;-75
2023/09/30 06:50:44;;;;;;;5.10;3.15;;;21.40;93.10;;;;;;941485;148;27416;-75
2023/09/30 06:53:10;;;;;;;5.17;3.22;;;21.70;91.80;;;;;;939839;148;27496;-76
2023/09/30 06:55:40;;;;;;;6.95;4.05;;;22.00;90.40;;;;;;943376;148;27390;-76
2023/09/30 06:58:10;;;;;;;3.87;3.52;;;22.30;88.00;;;;;;944220;146;27326;-75
2023/09/30 07:00:36;;;;;;;3.85;3.25;;;22.50;86.60;;;;;;927968;149;27476;-75
2023/09/30 07:03:02;;;;;;;3.80;3.45;;;22.60;85.00;;;;;;928755;149;27341;-75
2023/09/30 07:05:29;;;;;;;6.72;3.65;;;22.80;84.60;;;;;;945891;146;27407;-75
2023/09/30 07:07:55;;;;;;;7.33;3.60;;;23.00;83.40;;;;;;929582;149;27376;-76
2023/09/30 07:10:22;;;;;;;4.85;3.40;;;23.20;82.20;;;;;;927184;149;27404;-76
2023/09/30 07:12:49;;;;;;;5.42;3.12;;;23.50;82.10;;;;;;944233;146;27339;-75
2023/09/30 07:15:15;;;;;;;4.58;3.08;;;23.80;82.00;;;;;;929696;149;27378;-75
2023/09/30 07:17:43;;;;;;;3.72;2.77;;;24.10;81.40;;;;;;940249;148;27654;-76
2023/09/30 07:20:09;;;;;;;4.75;3.33;;;24.50;80.00;;;;;;939770;148;27334;-75
2023/09/30 07:22:35;;;;;;;4.17;3.30;;;24.90;78.50;;;;;;928170;150;27361;-76
2023/09/30 07:25:02;;;;;;;4.25;2.65;;;25.20;77.80;;;;;;945630;146;27321;-76
2023/09/30 07:27:28;;;;;;;4.67;2.77;;;25.70;76.00;;;;;;942895;146;27413;-78
2023/09/30 07:29:55;;;;;;;3.65;2.80;;;26.10;74.70;;;;;;944376;146;27947;-77
2023/09/30 07:32:24;;;;;;;4.33;2.70;;;26.50;73.40;;;;;;925947;149;27385;-78
2023/09/30 07:34:48;;;;;;;3.67;2.47;;;26.90;72.30;;;;;;942323;146;27460;-79
2023/09/30 07:37:15;;;;;;;3.72;2.75;;;27.40;71.50;;;;;;925549;149;27371;-79
2023/09/30 07:39:41;;;;;;;3.27;2.27;;;27.80;70.40;;;;;;940424;148;27326;-79
2023/09/30 07:42:08;;;;;;;3.25;2.30;;;28.30;69.00;;;;;;941072;148;27363;-76
2023/09/30 07:44:37;;;;;;;2.87;2.10;;;28.70;67.30;;;;;;942996;148;27335;-78
2023/09/30 07:47:01;;;;;;;2.72;2.12;;;29.10;66.00;;;;;;944648;146;27341;-76
2023/09/30 07:49:27;;;;;;;3.72;2.17;;;29.50;64.90;;;;;;928592;149;26248;-75
2023/09/30 07:51:54;;;;;;;3.35;2.20;;;29.90;63.40;;;;;;946181;146;28905;-79
2023/09/30 07:54:21;;;;;;;3.58;2.02;;;30.20;62.20;;;;;;926422;149;26272;-78
2023/09/30 07:56:47;;;;;;;3.05;1.85;;;30.50;61.10;;;;;;927762;149;27393;-79
2023/09/30 07:59:15;;;;;;;3.75;2.30;;;30.80;60.20;;;;;;943601;146;27322;-80
2023/09/30 08:01:40;;;;;;;4.53;1.95;;;31.20;59.80;;;;;;927737;149;27463;-76
2023/09/30 08:04:07;;;;;;;4.60;2.37;;;31.40;59.80;;;;;;945282;146;27319;-79
2023/09/30 08:06:34;;;;;;;3.00;2.17;;;31.80;58.80;;;;;;942807;146;27465;-79
2023/09/30 08:09:02;;;;;;;2.30;2.02;;;32.10;58.20;;;;;;925456;149;27987;-78
2023/09/30 08:11:30;;;;;;;3.98;2.33;;;32.50;57.30;;;;;;931240;149;27434;-80
2023/09/30 08:13:53;;;;;;;3.30;1.95;;;32.70;56.60;;;;;;924936;149;27393;-77
2023/09/30 08:16:20;;;;;;;3.45;2.33;;;33.00;56.10;;;;;;942929;146;27344;-80
2023/09/30 08:18:47;;;;;;;3.70;2.37;;;33.30;55.50;;;;;;926253;149;26293;-80
2023/09/30 08:21:13;;;;;;;2.95;2.12;;;33.50;55.00;;;;;;928275;149;27356;-80
2023/09/30 08:23:40;;;;;;;3.60;2.30;;;33.80;54.60;;;;;;942461;146;26247;-78
2023/09/30 08:26:06;;;;;;;2.35;2.12;;;34.10;53.80;;;;;;943101;146;26200;-76
2023/09/30 08:28:33;;;;;;;3.25;2.15;;;34.40;53.20;;;;;;924586;149;27868;-80
2023/09/30 08:31:02;;;;;;;3.33;2.20;;;34.50;52.70;;;;;;925982;149;27379;-80
2023/09/30 08:33:30;;;;;;;7.12;2.50;;;34.70;52.40;;;;;;941385;148;26350;-80
2023/09/30 08:35:56;;;;;;;5.20;2.45;;;34.90;52.10;;;;;;940690;148;26348;-75
2023/09/30 08:38:22;;;;;;;2.40;1.70;;;35.10;51.80;;;;;;929492;149;26300;-79
2023/09/30 08:40:49;;;;;;;3.25;2.55;;;35.40;51.40;;;;;;947754;146;26266;-80
2023/09/30 08:43:15;;;;;;;2.62;2.22;;;35.50;50.80;;;;;;941038;148;26390;-80
2023/09/30 08:45:42;;;;;;;3.25;2.20;;;35.70;50.20;;;;;;941961;148;26447;-80
2023/09/30 08:48:09;;;;;;;4.12;2.20;;;35.80;49.70;;;;;;933720;149;26208;-80
2023/09/30 08:50:35;;;;;;;5.85;2.08;;;36.00;49.50;;;;;;943500;146;26325;-79
2023/09/30 08:53:03;;;;;;;3.47;2.30;;;36.10;49.00;;;;;;928291;151;26288;-80
2023/09/30 08:55:28;;;;;;;3.92;2.08;;;36.10;48.10;;;;;;945915;146;26267;-77
2023/09/30 08:57:55;;;;;;;4.03;2.10;;;36.00;47.10;;;;;;943000;146;27331;-80
2023/09/30 09:00:22;;;;;;;5.55;2.12;;;35.60;46.60;;;;;;927482;149;26623;-79
2023/09/30 09:02:48;;;;;;;3.65;2.12;;;35.20;46.30;;;;;;943165;146;27337;-80
2023/09/30 09:05:15;;;;;;;2.80;2.20;;;34.70;45.90;;;;;;942428;146;27291;-80
2023/09/30 09:07:42;;;;;;;4.15;2.15;;;34.20;45.90;;;;;;929091;149;27339;-77
2023/09/30 09:10:13;;;;;;;4.08;1.90;;;33.70;46.50;;;;;;944222;146;27411;-80
2023/09/30 09:12:38;;;;;;;5.00;2.30;;;33.40;47.50;;;;;;936428;149;26218;-81
2023/09/30 09:15:04;;;;;;;2.55;2.20;;;33.20;48.10;;;;;;927235;149;27421;-81
2023/09/30 09:17:40;;;;;;;2.60;2.10;;;33.30;48.50;;;;;;938095;149;27430;-80
2023/09/30 09:20:09;;;;;;;7.00;2.27;;;33.40;48.70;;;;;;935419;149;26260;-80
2023/09/30 09:22:39;;;;;;;4.00;2.15;;;33.60;48.80;;;;;;948452;148;27332;-80
2023/09/30 09:25:05;;;;;;;3.98;2.37;;;33.80;48.50;;;;;;943975;148;26380;-81
2023/09/30 09:27:32;;;;;;;3.77;2.70;;;34.00;48.00;;;;;;943022;148;26392;-79
2023/09/30 09:29:58;;;;;;;3.10;2.33;;;34.10;47.70;;;;;;944374;147;26272;-80
2023/09/30 09:32:25;;;;;;;2.67;2.27;;;34.30;48.30;;;;;;941101;148;27165;-80
2023/09/30 09:34:52;;;;;;;3.52;2.17;;;34.40;47.30;;;;;;942059;148;26284;-76
2023/09/30 09:37:18;;;;;;;2.58;2.37;;;34.50;46.90;;;;;;941807;148;26300;-76
2023/09/30 09:39:53;;;;;;;3.52;2.22;;;34.50;46.60;;;;;;943524;148;26356;-81
2023/09/30 09:42:29;;;;;;;3.27;2.52;;;34.40;45.60;;;;;;942764;147;27425;-81
2023/09/30 09:44:56;;;;;;;4.20;2.20;;;34.30;45.10;;;;;;943707;148;27358;-79
2023/09/30 09:47:22;;;;;;;3.17;2.40;;;34.00;44.90;;;;;;943176;148;26222;-74
2023/09/30 09:49:49;;;;;;;3.72;2.55;;;33.60;45.00;;;;;;943549;147;27330;-74
2023/09/30 09:52:16;;;;;;;2.85;2.40;;;33.30;45.10;;;;;;945175;148;27352;-77
2023/09/30 09:54:42;;;;;;;4.40;2.67;;;33.00;45.40;;;;;;941718;148;27361;-74
2023/09/30 09:57:08;;;;;;;2.55;2.30;;;32.70;45.50;;;;;;944388;147;27489;-75
2023/09/30 09:59:35;;;;;;;3.45;2.35;;;32.50;45.30;;;;;;944575;147;27376;-74
2023/09/30 10:02:02;;;;;;;5.33;2.75;;;32.20;45.00;;;;;;944519;147;27930;-74
2023/09/30 10:04:28;;;;;;;3.50;2.47;;;31.80;44.80;;;;;;944441;148;26280;-74
2023/09/30 10:06:55;;;;;;;3.50;2.50;;;31.40;44.90;;;;;;943228;147;27493;-76
2023/09/30 10:09:21;;;;;;;3.70;2.67;;;31.00;45.20;;;;;;942969;148;27452;-74
2023/09/30 10:11:48;;;;;;;6.17;3.08;;;30.60;45.50;;;;;;943965;148;27278;-75
2023/09/30 10:14:30;;;;;;;3.72;2.50;;;30.30;45.70;;;;;;941925;148;27384;-74
2023/09/30 10:16:56;;;;;;;4.62;2.58;;;29.90;45.80;;;;;;945549;148;27360;-75
2023/09/30 10:19:23;;;;;;;2.62;2.30;;;29.60;46.00;;;;;;944557;147;27376;-73
2023/09/30 10:22:21;;;;;;;3.62;2.75;;;29.30;46.20;;;;;;943444;148;28325;-74
2023/09/30 10:24:47;;;;;;;4.40;2.52;;;29.00;46.40;;;;;;944745;148;27345;-74
2023/09/30 10:27:22;;;;;;;5.40;2.55;;;28.60;46.70;;;;;;945073;148;27350;-74
2023/09/30 10:29:49;;;;;;;4.45;2.55;;;28.20;47.20;;;;;;943901;148;27388;-74
2023/09/30 10:32:16;;;;;;;4.53;2.85;;;27.90;47.00;;;;;;943324;147;27358;-73
2023/09/30 10:34:49;;;;;;;4.35;2.60;;;27.60;47.30;;;;;;942706;148;27454;-73
2023/09/30 10:37:21;;;;;;;4.60;2.85;;;27.40;47.50;;;;;;942979;147;27465;-74
2023/09/30 10:39:54;;;;;;;3.70;2.35;;;27.20;47.70;;;;;;943781;147;27448;-75
2023/09/30 10:42:51;;;;;;;3.87;2.30;;;26.90;47.90;;;;;;942538;148;27456;-77
2023/09/30 10:45:46;;;;;;;4.78;2.50;;;26.70;48.10;;;;;;943261;147;27346;-74
2023/09/30 10:48:41;;;;;;;3.05;2.10;;;26.50;48.50;;;;;;928955;149;27440;-75
2023/09/30 10:51:00;;;;;;;4.90;2.52;;;26.30;48.80;;;;;;939126;146;27773;-74
2023/09/30 10:53:24;;;;;;;3.77;2.58;;;26.20;49.20;;;;;;925513;149;27370;-73
2023/09/30 10:55:57;;;;;;;3.90;2.75;;;26.10;49.60;;;;;;942727;146;27424;-75
2023/09/30 10:58:23;;;;;;;6.00;2.60;;;26.10;49.50;;;;;;928835;149;27465;-75
2023/09/30 11:00:55;;;;;;;4.25;2.62;;;26.00;49.70;;;;;;923809;150;27836;-76
2023/09/30 11:03:22;;;;;;;5.17;2.27;;;26.00;50.10;;;;;;942793;146;27346;-77
2023/09/30 11:05:48;;;;;;;3.47;2.60;;;26.00;50.10;;;;;;944185;146;27346;-76
2023/09/30 11:08:18;;;;;;;3.95;2.55;;;26.00;50.10;;;;;;931060;148;27393;-76
2023/09/30 11:10:54;;;;;;;7.75;2.52;;;26.00;50.10;;;;;;945300;148;27466;-76
2023/09/30 11:13:19;;;;;;;4.00;2.60;;;26.00;50.10;;;;;;943505;148;27426;-76
2023/09/30 11:15:46;;;;;;;4.70;2.72;;;26.00;50.10;;;;;;945204;148;28427;-76
2023/09/30 11:18:15;;;;;;;3.42;2.62;;;26.00;50.60;;;;;;944337;148;27321;-76
2023/09/30 11:20:42;;;;;;;5.20;2.95;;;25.90;50.00;;;;;;933307;148;27367;-76
2023/09/30 11:23:08;;;;;;;4.05;2.72;;;25.80;50.10;;;;;;946013;148;27417;-76
2023/09/30 11:25:35;;;;;;;4.30;2.40;;;25.70;50.00;;;;;;947515;147;27413;-76
2023/09/30 11:28:17;;;;;;;4.17;2.40;;;25.70;50.20;;;;;;948742;147;27455;-76
2023/09/30 11:30:58;;;;;;;4.47;2.70;;;25.60;50.10;;;;;;949275;147;27357;-76
2023/09/30 11:33:25;;;;;;;3.47;2.72;;;25.50;50.20;;;;;;950052;147;27329;-76
2023/09/30 11:36:03;;;;;;;3.27;2.50;;;25.40;49.90;;;;;;933853;148;28323;-76
2023/09/30 11:38:30;;;;;;;2.70;2.50;;;25.40;50.00;;;;;;944760;148;27437;-76
2023/09/30 11:41:03;;;;;;;5.17;3.05;;;25.30;50.10;;;;;;944578;148;27414;-76
2023/09/30 11:43:29;;;;;;;4.72;2.55;;;25.20;50.10;;;;;;933284;148;27371;-76
2023/09/30 11:46:08;;;;;;;3.08;2.27;;;25.20;50.10;;;;;;944285;148;27321;-76
2023/09/30 11:48:35;;;;;;;3.62;2.30;;;25.10;50.20;;;;;;930972;148;27454;-76
2023/09/30 11:51:02;;;;;;;3.10;2.60;;;25.10;50.20;;;;;;944272;148;27329;-76
2023/09/30 11:53:27;;;;;;;3.77;3.05;;;25.00;50.10;;;;;;943283;148;27878;-76
2023/09/30 11:55:58;;;;;;;2.85;2.45;;;24.90;50.20;;;;;;946169;148;27362;-76
2023/09/30 11:58:23;;;;;;;4.75;2.45;;;24.80;50.20;;;;;;946122;148;27449;-76
2023/09/30 12:00:50;;;;;;;3.37;2.70;;;24.70;49.60;;;;;;932848;148;27294;-76
2023/09/30 12:03:16;;;;;;;3.83;2.50;;;24.70;50.40;;;;;;944558;148;27421;-76
2023/09/30 12:05:45;;;;;;;3.00;2.55;;;24.70;50.60;;;;;;943759;148;27343;-76
2023/09/30 12:08:10;;;;;;;6.03;2.37;;;24.60;50.60;;;;;;945208;148;28445;-76
2023/09/30 12:10:36;;;;;;;4.78;2.98;;;24.60;50.70;;;;;;939763;148;27379;-76
2023/09/30 12:13:03;;;;;;;4.08;2.70;;;24.60;50.80;;;;;;928281;149;27361;-76
2023/09/30 12:15:29;;;;;;;4.37;2.92;;;24.60;50.90;;;;;;941287;146;27368;-76
2023/09/30 12:17:56;;;;;;;4.15;3.05;;;24.50;50.90;;;;;;926641;149;27336;-76
2023/09/30 12:20:22;;;;;;;2.92;2.20;;;24.60;51.10;;;;;;941817;146;27490;-76
2023/09/30 12:22:49;;;;;;;5.58;4.30;;;24.50;50.90;;;;;;925994;149;27348;-76
2023/09/30 12:25:18;;;;;;;6.47;5.30;;;24.50;50.80;;;;;;923396;149;27405;-76
2023/09/30 12:27:42;;;;;;;6.05;3.98;;;24.50;50.70;;;;;;940751;146;27340;-76
2023/09/30 12:30:09;;;;;;;4.08;3.08;;;24.40;50.80;;;;;;940266;146;28720;-76
2023/09/30 12:32:35;;;;;;;3.60;2.70;;;24.30;50.80;;;;;;923949;149;27417;-76
2023/09/30 12:35:04;;;;;;;3.98;2.77;;;24.30;50.70;;;;;;925928;149;27409;-76
2023/09/30 12:37:29;;;;;;;3.05;2.42;;;24.10;50.80;;;;;;939546;146;27350;-76
2023/09/30 12:39:55;;;;;;;3.10;2.60;;;24.10;51.00;;;;;;923054;149;27955;-76
2023/09/30 12:42:22;;;;;;;2.95;2.35;;;24.00;51.20;;;;;;924337;149;27363;-76
2023/09/30 12:44:48;;;;;;;4.20;2.58;;;23.90;51.30;;;;;;941679;146;27810;-76
2023/09/30 12:47:15;;;;;;;5.17;2.22;;;23.90;51.30;;;;;;924663;149;27349;-76
2023/09/30 12:49:41;;;;;;;3.52;2.58;;;23.80;51.40;;;;;;930153;149;27543;-76